Time;durP1;ratioP1;P1;durP2;ratioP2;P2;SDS_P1;SDS_P2;PMS_P1;PMS_P2;Temp;Humidity;BMP_temperature;BMP_pressure;BME280_temperature;BME280_humidity;BME280_pressure;Samples;Min_cycle;Max_cycle;Signal;HPM_P1;HPM_P2
2022/11/15 00:01:14;;;;;;;54.77;43.87;;;;;;;4.52;68.47;95505.47;5057528;28;20185;-68
2022/11/15 00:03:39;;;;;;;55.20;46.40;;;;;;;4.56;68.48;95501.69;5062198;28;20193;-68
2022/11/15 00:06:05;;;;;;;56.60;44.23;;;;;;;4.46;68.52;95492.00;5057610;28;20192;-68
2022/11/15 00:08:31;;;;;;;60.87;47.00;;;;;;;4.66;68.37;95503.69;5060871;28;20185;-68
2022/11/15 00:10:59;;;;;;;63.13;47.73;;;;;;;4.77;67.58;95507.22;5059001;28;20285;-68
2022/11/15 00:13:25;;;;;;;62.67;47.17;;;;;;;4.63;67.69;95489.13;5059485;28;20262;-68
2022/11/15 00:15:50;;;;;;;58.03;48.20;;;;;;;4.39;68.81;95500.22;5060900;28;20192;-69
2022/11/15 00:18:17;;;;;;;62.20;48.13;;;;;;;4.52;69.48;95496.81;5041491;28;20197;-68
2022/11/15 00:20:43;;;;;;;59.23;47.93;;;;;;;4.62;69.05;95505.66;5054077;28;20311;-69
2022/11/15 00:23:08;;;;;;;59.60;48.80;;;;;;;4.28;69.34;95492.31;5056120;28;20324;-69
2022/11/15 00:25:33;;;;;;;59.30;47.27;;;;;;;4.58;68.92;95499.00;5059781;28;20196;-69
2022/11/15 00:28:00;;;;;;;62.67;46.80;;;;;;;4.64;68.33;95498.59;5060734;28;20242;-69
2022/11/15 00:30:26;;;;;;;56.37;45.67;;;;;;;4.65;67.86;95495.03;5063424;28;20189;-69
2022/11/15 00:32:52;;;;;;;56.97;44.80;;;;;;;4.54;68.34;95481.91;5061862;28;20200;-68
2022/11/15 00:35:18;;;;;;;58.40;45.37;;;;;;;4.52;68.15;95476.81;5062720;28;20201;-68
2022/11/15 00:37:44;;;;;;;57.57;46.83;;;;;;;4.26;69.13;95483.75;5059946;28;20242;-69
2022/11/15 00:40:12;;;;;;;59.10;44.70;;;;;;;4.46;68.65;95478.97;5062867;28;20210;-69
2022/11/15 00:42:38;;;;;;;61.13;46.17;;;;;;;4.29;68.96;95475.75;5055552;28;20216;-69
2022/11/15 00:45:04;;;;;;;56.90;46.83;;;;;;;4.25;69.20;95482.09;5060951;28;20197;-69
2022/11/15 00:47:29;;;;;;;61.10;45.20;;;;;;;4.27;69.16;95475.00;5059777;28;20196;-68
2022/11/15 00:49:55;;;;;;;54.67;44.27;;;;;;;4.33;68.96;95471.16;5065033;28;20217;-68
2022/11/15 00:52:20;;;;;;;54.67;44.07;;;;;;;4.24;68.85;95470.00;5056048;28;20185;-68
2022/11/15 00:54:46;;;;;;;56.03;44.30;;;;;;;4.15;68.78;95476.66;5060612;28;20193;-68
2022/11/15 00:57:11;;;;;;;51.97;43.40;;;;;;;4.18;69.16;95473.03;5059622;28;20242;-69
2022/11/15 00:59:36;;;;;;;48.63;41.67;;;;;;;4.19;68.97;95462.50;5065177;28;20205;-68
2022/11/15 01:02:02;;;;;;;51.33;41.60;;;;;;;4.10;68.86;95472.69;5059194;28;20239;-69
2022/11/15 01:04:27;;;;;;;55.63;44.07;;;;;;;4.18;68.87;95466.03;5053398;28;20189;-68
2022/11/15 01:06:53;;;;;;;57.37;45.63;;;;;;;3.97;69.27;95463.09;5064337;28;20243;-68
2022/11/15 01:09:18;;;;;;;57.30;44.50;;;;;;;3.98;69.29;95464.78;5059874;28;20658;-68
2022/11/15 01:11:44;;;;;;;53.70;42.27;;;;;;;4.07;69.18;95470.31;5056944;28;20735;-68
2022/11/15 01:14:09;;;;;;;50.10;41.77;;;;;;;4.10;69.18;95462.28;5055153;28;20548;-67
2022/11/15 01:16:35;;;;;;;58.67;43.83;;;;;;;4.00;68.78;95464.66;5059798;28;20181;-68
2022/11/15 01:19:00;;;;;;;53.10;42.90;;;;;;;4.13;68.65;95467.28;5068470;28;20209;-68
2022/11/15 01:21:26;;;;;;;53.10;41.73;;;;;;;4.14;68.42;95463.75;5060272;28;20192;-69
2022/11/15 01:23:56;;;;;;;51.47;42.00;;;;;;;4.00;68.61;95461.22;5064259;28;20311;-69
2022/11/15 01:26:22;;;;;;;51.20;41.63;;;;;;;3.91;69.11;95462.66;5063834;28;20189;-68
2022/11/15 01:28:48;;;;;;;54.87;40.97;;;;;;;3.89;69.49;95452.34;5060990;28;20189;-68
2022/11/15 01:31:19;;;;;;;51.10;41.67;;;;;;;4.02;69.07;95456.75;5063116;28;20195;-68
2022/11/15 01:33:45;;;;;;;52.33;41.53;;;;;;;4.02;68.91;95464.56;5067242;28;20185;-69
2022/11/15 01:36:14;;;;;;;51.60;38.53;;;;;;;4.02;68.72;95457.59;5062241;28;20184;-68
2022/11/15 01:38:40;;;;;;;45.00;38.43;;;;;;;4.13;68.34;95462.09;5063676;28;20180;-68
2022/11/15 01:41:05;;;;;;;47.40;38.43;;;;;;;4.13;68.38;95462.09;5063653;28;20209;-68
2022/11/15 01:43:35;;;;;;;44.33;36.93;;;;;;;4.10;68.21;95452.72;5068572;28;20200;-68
2022/11/15 01:46:21;;;;;;;48.90;38.70;;;;;;;4.13;67.87;95456.88;5065305;28;20184;-68
2022/11/15 01:48:49;;;;;;;47.30;37.97;;;;;;;4.15;68.07;95460.22;5060774;28;20223;-68
2022/11/15 01:51:17;;;;;;;44.07;38.87;;;;;;;4.19;67.68;95461.66;5065252;28;20184;-68
2022/11/15 01:53:47;;;;;;;49.87;38.63;;;;;;;4.19;67.66;95453.84;5065998;28;20488;-68
2022/11/15 01:56:19;;;;;;;61.53;42.03;;;;;;;4.17;67.53;95459.19;5060499;28;20242;-68
2022/11/15 01:58:46;;;;;;;56.63;41.80;;;;;;;4.03;67.77;95461.03;5064881;28;20211;-68
2022/11/15 02:01:13;;;;;;;54.17;42.77;;;;;;;3.75;68.96;95453.25;5065724;28;20260;-68
2022/11/15 02:04:02;;;;;;;51.50;41.73;;;;;;;3.72;68.79;95458.66;5065108;28;20264;-68
2022/11/15 02:06:27;;;;;;;52.47;41.60;;;;;;;3.75;69.39;95455.84;5064993;28;20608;-68
2022/11/15 02:08:54;;;;;;;52.13;39.33;;;;;;;3.87;69.52;95456.81;5062527;28;20185;-68
2022/11/15 02:11:19;;;;;;;46.87;38.53;;;;;;;3.96;68.86;95452.78;5059303;28;20274;-68
2022/11/15 02:13:45;;;;;;;50.97;40.57;;;;;;;3.98;68.81;95449.16;5062602;28;20197;-68
2022/11/15 02:16:26;;;;;;;53.83;42.87;;;;;;;3.88;69.51;95457.66;5059049;28;20259;-68
2022/11/15 02:19:12;;;;;;;51.37;41.77;;;;;;;3.67;70.27;95455.53;5066976;28;20320;-69
2022/11/15 02:21:56;;;;;;;54.50;42.07;;;;;;;3.76;69.86;95451.47;5063773;28;20223;-69
2022/11/15 02:24:49;;;;;;;56.00;43.33;;;;;;;3.59;70.46;95449.16;5078306;28;20209;-68
2022/11/15 02:27:30;;;;;;;53.13;42.63;;;;;;;3.72;69.75;95453.47;5058493;28;20185;-68
2022/11/15 02:30:14;;;;;;;53.83;42.23;;;;;;;3.70;69.80;95450.13;5056760;28;20199;-68
2022/11/15 02:32:47;;;;;;;56.10;41.20;;;;;;;3.67;70.18;95454.69;5058074;28;20196;-68
2022/11/15 02:35:45;;;;;;;53.63;42.20;;;;;;;3.52;70.37;95459.09;5063870;28;20278;-69
2022/11/15 02:38:20;;;;;;;50.07;40.07;;;;;;;3.60;70.45;95449.03;5063371;28;20196;-69
2022/11/15 02:41:02;;;;;;;53.53;38.37;;;;;;;3.77;69.79;95442.75;5058770;28;20232;-69
2022/11/15 02:43:58;;;;;;;46.23;37.77;;;;;;;3.84;69.06;95449.22;5062441;28;20437;-68
2022/11/15 02:49:30;;;;;;;47.00;38.97;;;;;;;3.74;69.30;95449.00;5063113;28;20230;-68
2022/11/15 02:51:55;;;;;;;47.47;38.60;;;;;;;3.91;69.39;95453.09;5063745;28;20197;-69
2022/11/15 02:54:32;;;;;;;51.73;39.20;;;;;;;4.08;68.72;95445.94;5059611;28;20246;-69
2022/11/15 02:57:04;;;;;;;48.73;39.30;;;;;;;4.16;68.46;95452.28;5062512;28;20243;-70
2022/11/15 02:59:51;;;;;;;48.07;38.53;;;;;;;4.13;68.40;95449.91;5062936;28;20232;-70
2022/11/15 03:02:38;;;;;;;49.00;39.53;;;;;;;3.84;69.05;95449.22;5061357;28;20562;-69
2022/11/15 03:05:19;;;;;;;50.00;40.77;;;;;;;3.88;69.50;95450.69;5059871;28;20190;-67
2022/11/15 03:07:54;;;;;;;53.80;38.90;;;;;;;4.00;69.54;95449.03;5062721;28;20208;-68
2022/11/15 03:10:32;;;;;;;50.50;40.27;;;;;;;4.17;68.95;95453.13;5056636;28;20239;-68
2022/11/15 03:13:08;;;;;;;48.63;39.43;;;;;;;4.21;68.81;95449.41;5064542;28;20200;-69
2022/11/15 03:15:43;;;;;;;48.53;37.73;;;;;;;4.13;68.98;95449.06;5061199;28;20645;-70
2022/11/15 03:18:48;;;;;;;47.53;39.67;;;;;;;4.25;68.46;95444.81;5061428;28;20230;-70
2022/11/15 03:21:18;;;;;;;45.63;38.07;;;;;;;4.32;68.30;95444.28;4966427;28;20220;-70
2022/11/15 03:23:45;;;;;;;51.03;39.77;;;;;;;3.98;69.12;95441.34;4970029;28;20299;-69
2022/11/15 03:26:13;;;;;;;47.97;39.40;;;;;;;4.11;68.97;95438.75;4953766;28;20514;-69
2022/11/15 03:29:03;;;;;;;51.10;39.43;;;;;;;4.18;68.79;95440.00;4951038;28;20208;-69
2022/11/15 03:31:46;;;;;;;48.97;39.67;;;;;;;4.23;68.48;95431.91;4953216;28;20286;-69
2022/11/15 03:34:35;;;;;;;46.13;38.17;;;;;;;4.04;68.78;95434.09;4952622;28;20206;-69
2022/11/15 03:37:01;;;;;;;51.33;38.97;;;;;;;4.13;69.33;95428.25;4954621;28;20207;-70
2022/11/15 03:39:28;;;;;;;55.73;40.37;;;;;;;4.28;69.10;95424.63;4969540;28;20218;-70
2022/11/15 03:42:02;;;;;;;50.90;40.60;;;;;;;4.29;69.68;95422.84;4953975;28;20677;-70
2022/11/15 03:44:45;;;;;;;50.73;41.37;;;;;;;4.29;69.70;95428.88;4957329;28;20189;-70
2022/11/15 03:47:18;;;;;;;46.90;38.57;;;;;;;4.26;69.85;95421.28;4956022;28;20204;-69
2022/11/15 03:49:57;;;;;;;50.57;40.27;;;;;;;4.30;68.97;95406.28;4954320;28;20207;-69
2022/11/15 03:52:22;;;;;;;49.13;38.60;;;;;;;4.25;69.36;95403.16;4954156;28;20203;-69
2022/11/15 03:54:55;;;;;;;49.17;40.27;;;;;;;4.16;69.51;95415.03;4991202;28;20197;-69
2022/11/15 03:57:20;;;;;;;52.30;40.30;;;;;;;4.19;69.59;95412.22;5064542;28;20668;-70
2022/11/15 03:59:46;;;;;;;50.73;39.63;;;;;;;4.26;69.74;95404.84;5059898;28;20283;-70
2022/11/15 04:02:13;;;;;;;51.10;39.40;;;;;;;4.28;69.66;95410.78;5060297;28;20202;-70
2022/11/15 04:04:39;;;;;;;48.03;37.87;;;;;;;4.29;69.71;95404.63;5063713;28;20327;-70
2022/11/15 04:07:05;;;;;;;50.83;40.23;;;;;;;4.45;68.49;95409.63;5057313;28;20265;-68
2022/11/15 04:09:30;;;;;;;55.40;40.83;;;;;;;4.28;69.13;95403.81;5058409;28;20197;-69
2022/11/15 04:12:30;;;;;;;56.60;43.13;;;;;;;4.37;68.66;95408.38;5054522;28;20220;-69
2022/11/15 04:15:09;;;;;;;54.67;45.03;;;;;;;4.38;67.90;95415.25;5059561;28;20241;-69
2022/11/15 04:17:55;;;;;;;58.90;45.87;;;;;;;4.31;68.50;95402.75;5059626;28;20181;-69
2022/11/15 04:26:00;;;;;;;63.23;44.93;;;;;;;4.43;67.66;95397.53;5065032;28;20187;-68
2022/11/15 04:28:26;;;;;;;57.67;45.53;;;;;;;4.32;67.27;95391.41;5060903;28;20262;-69
2022/11/15 04:30:52;;;;;;;58.93;44.77;;;;;;;4.19;68.35;95401.81;5059721;28;20189;-69
2022/11/15 04:33:17;;;;;;;57.07;44.60;;;;;;;4.14;67.93;95396.94;5059635;28;20214;-69
2022/11/15 04:35:43;;;;;;;53.53;44.07;;;;;;;4.13;68.24;95403.06;5060584;28;20188;-69
2022/11/15 04:38:10;;;;;;;54.23;45.77;;;;;;;4.30;67.86;95406.28;5065485;28;20192;-69
2022/11/15 04:40:37;;;;;;;54.63;44.67;;;;;;;4.23;67.77;95408.47;5060691;28;20213;-69
2022/11/15 04:43:03;;;;;;;57.20;44.73;;;;;;;4.14;68.03;95401.28;5048277;28;20193;-70
2022/11/15 04:45:28;;;;;;;53.53;43.30;;;;;;;4.20;67.70;95400.88;5061163;28;20185;-69
2022/11/15 04:47:54;;;;;;;51.73;42.33;;;;;;;4.09;68.36;95399.00;5058420;28;20246;-69
2022/11/15 04:50:19;;;;;;;49.70;41.33;;;;;;;4.01;68.48;95401.28;5063372;28;20277;-69
2022/11/15 04:52:54;;;;;;;46.50;40.73;;;;;;;4.17;68.56;95406.28;5057021;28;20280;-69
2022/11/15 04:55:20;;;;;;;48.70;41.37;;;;;;;4.08;68.61;95396.50;5065152;28;20703;-68
2022/11/15 04:57:45;;;;;;;48.30;39.40;;;;;;;4.15;68.71;95410.78;5069820;28;20193;-69
2022/11/15 05:00:14;;;;;;;43.67;36.80;;;;;;;4.05;69.29;95407.94;5061263;28;20385;-68
2022/11/15 05:05:24;;;;;;;29.63;25.83;;;;;;;4.09;70.61;95398.16;5062844;28;20219;-68
2022/11/15 05:07:50;;;;;;;31.37;26.97;;;;;;;4.14;71.06;95404.75;5064705;28;20216;-69
2022/11/15 05:10:17;;;;;;;34.47;27.00;;;;;;;4.07;71.72;95400.03;5069531;28;20228;-68
2022/11/15 05:12:42;;;;;;;33.17;25.87;;;;;;;4.09;72.89;95403.34;5070896;28;20283;-68
2022/11/15 05:15:08;;;;;;;36.50;28.27;;;;;;;4.04;73.38;95403.69;5065350;28;20275;-69
2022/11/15 05:17:34;;;;;;;43.63;27.90;;;;;;;4.13;73.69;95412.63;5065684;28;20240;-69
2022/11/15 05:19:59;;;;;;;39.57;27.90;;;;;;;4.16;74.13;95415.03;5077213;28;20318;-68
2022/11/15 05:22:25;;;;;;;39.13;29.13;;;;;;;4.12;73.87;95398.78;5067396;28;20655;-68
2022/11/15 05:24:50;;;;;;;38.30;29.37;;;;;;;4.06;74.48;95403.56;5070110;28;20186;-70
2022/11/15 05:27:16;;;;;;;41.73;29.60;;;;;;;4.05;74.70;95401.91;5068234;28;20271;-69
2022/11/15 05:29:41;;;;;;;39.90;29.33;;;;;;;4.23;74.63;95410.25;5072012;28;20184;-69
2022/11/15 05:32:08;;;;;;;39.50;29.23;;;;;;;4.26;74.62;95410.88;5070488;28;20189;-69
2022/11/15 05:34:34;;;;;;;40.43;29.73;;;;;;;4.35;74.14;95399.81;5067756;28;20189;-68
2022/11/15 05:37:00;;;;;;;50.90;31.97;;;;;;;4.25;74.45;95397.94;5069733;28;20256;-69
2022/11/15 05:39:26;;;;;;;44.20;32.17;;;;;;;4.28;74.59;95408.19;5071711;28;20207;-70
2022/11/15 05:42:13;;;;;;;41.90;29.60;;;;;;;4.34;74.25;95405.16;5067970;28;20197;-70
2022/11/15 05:44:44;;;;;;;39.93;27.60;;;;;;;4.32;74.57;95407.03;5079738;28;20185;-70
2022/11/15 05:47:16;;;;;;;35.83;26.37;;;;;;;4.26;74.78;95416.09;5068874;28;20188;-68
2022/11/15 05:49:43;;;;;;;32.17;24.40;;;;;;;4.32;74.90;95410.44;5077369;28;20200;-69
2022/11/15 05:52:13;;;;;;;31.60;24.83;;;;;;;4.40;74.14;95399.53;5062567;28;20276;-69
2022/11/15 05:54:39;;;;;;;34.17;24.20;;;;;;;4.40;74.54;95402.13;5064432;28;20240;-69
2022/11/15 05:57:05;;;;;;;32.17;24.70;;;;;;;4.41;74.66;95399.44;5062745;28;20207;-68
2022/11/15 05:59:32;;;;;;;32.50;23.47;;;;;;;4.57;73.40;95406.16;5067609;28;20235;-69
2022/11/15 06:01:58;;;;;;;32.07;23.93;;;;;;;4.54;73.51;95407.22;5064595;28;20277;-69
2022/11/15 06:04:24;;;;;;;34.70;25.23;;;;;;;4.48;73.18;95399.00;5062112;28;20184;-69
2022/11/15 06:06:49;;;;;;;37.10;26.40;;;;;;;4.60;73.11;95405.97;5067556;28;20237;-69
2022/11/15 06:09:15;;;;;;;34.00;24.90;;;;;;;4.69;72.57;95420.97;5072524;28;20180;-69
2022/11/15 06:11:40;;;;;;;32.10;23.60;;;;;;;4.67;72.25;95414.19;5063449;28;20293;-70
2022/11/15 06:14:06;;;;;;;39.30;25.37;;;;;;;4.72;72.16;95412.09;5057845;28;20189;-69
2022/11/15 06:16:31;;;;;;;31.43;22.93;;;;;;;4.68;72.02;95410.63;5061305;28;20207;-67
2022/11/15 06:18:57;;;;;;;30.17;23.77;;;;;;;4.61;72.18;95408.47;5062148;28;20217;-66
2022/11/15 06:21:22;;;;;;;32.27;24.17;;;;;;;4.73;71.96;95416.34;5051179;28;20189;-66
2022/11/15 06:23:48;;;;;;;32.57;23.93;;;;;;;4.71;72.10;95416.47;5058177;28;20176;-67
2022/11/15 06:26:13;;;;;;;34.40;24.37;;;;;;;4.82;71.67;95421.78;5064539;28;20215;-67
2022/11/15 06:28:39;;;;;;;34.70;26.10;;;;;;;4.91;71.56;95406.44;5064028;28;20188;-67
2022/11/15 06:31:10;;;;;;;37.83;27.60;;;;;;;4.86;71.91;95412.81;5067164;28;20196;-68
2022/11/15 06:33:36;;;;;;;40.43;29.60;;;;;;;4.74;72.72;95412.84;5066450;28;20192;-67
2022/11/15 06:36:13;;;;;;;41.60;28.57;;;;;;;4.75;72.71;95415.31;5064475;28;20190;-66
2022/11/15 06:38:39;;;;;;;43.57;30.00;;;;;;;4.79;72.71;95406.34;5060885;28;20221;-67
2022/11/15 06:41:07;;;;;;;39.93;30.03;;;;;;;4.81;72.70;95414.91;5048910;28;20188;-68
2022/11/15 06:43:34;;;;;;;41.20;29.63;;;;;;;4.68;73.01;95405.41;5057418;28;20204;-67
2022/11/15 06:46:00;;;;;;;41.10;30.13;;;;;;;4.86;72.47;95404.16;5063666;28;20180;-67
2022/11/15 06:48:26;;;;;;;39.77;28.40;;;;;;;4.84;72.35;95409.47;5060922;28;20176;-68
2022/11/15 06:51:00;;;;;;;40.03;29.53;;;;;;;4.82;72.71;95406.16;5050347;28;20189;-68
2022/11/15 06:53:26;;;;;;;35.67;27.40;;;;;;;5.10;72.11;95406.78;5062710;28;20189;-69
2022/11/15 06:55:52;;;;;;;34.10;27.00;;;;;;;4.96;71.63;95409.56;5067311;28;20189;-68
2022/11/15 06:58:17;;;;;;;38.17;28.27;;;;;;;5.20;71.37;95418.25;5066749;28;20181;-68
2022/11/15 07:00:43;;;;;;;39.53;28.20;;;;;;;5.19;70.73;95408.75;5063259;28;20204;-68
2022/11/15 07:03:09;;;;;;;36.10;28.07;;;;;;;5.34;70.38;95403.38;5061273;28;20177;-68
2022/11/15 07:05:35;;;;;;;33.30;26.03;;;;;;;5.23;70.28;95402.38;5061189;28;20242;-68
2022/11/15 07:08:00;;;;;;;36.10;28.50;;;;;;;5.27;70.27;95403.00;5047087;28;20496;-69
2022/11/15 07:10:26;;;;;;;33.40;26.20;;;;;;;5.14;70.70;95405.66;5055714;28;20264;-70
2022/11/15 07:12:53;;;;;;;32.97;25.80;;;;;;;5.29;70.08;95403.72;5062821;28;20189;-69
2022/11/15 07:15:20;;;;;;;31.30;26.17;;;;;;;5.30;70.33;95411.44;5062424;28;20284;-68
2022/11/15 07:17:45;;;;;;;28.83;25.30;;;;;;;5.05;70.83;95393.25;5060218;28;20208;-69
2022/11/15 07:20:11;;;;;;;35.90;28.43;;;;;;;5.16;70.53;95397.69;5063923;28;20295;-69
2022/11/15 07:22:37;;;;;;;31.33;26.70;;;;;;;5.25;70.04;95390.06;5058557;28;20544;-71
2022/11/15 07:25:02;;;;;;;34.27;29.27;;;;;;;5.29;70.24;95401.09;5062591;28;20251;-70
2022/11/15 07:27:28;;;;;;;34.73;28.07;;;;;;;5.27;70.19;95397.78;5059550;28;20200;-67
2022/11/15 07:29:53;;;;;;;32.60;27.53;;;;;;;5.35;69.84;95394.63;5057768;28;20212;-68
2022/11/15 07:32:19;;;;;;;38.40;31.43;;;;;;;5.25;70.28;95410.09;5045210;28;20255;-70
2022/11/15 07:34:45;;;;;;;38.97;31.47;;;;;;;5.29;70.19;95390.66;5056731;28;20271;-68
2022/11/15 07:37:12;;;;;;;38.00;30.17;;;;;;;5.17;70.38;95395.00;5059825;28;20641;-68
2022/11/15 07:39:38;;;;;;;39.23;31.40;;;;;;;5.31;70.37;95402.66;5063062;28;20255;-67
2022/11/15 07:44:47;;;;;;;38.57;29.80;;;;;;;5.29;70.59;95406.31;5063202;28;20238;-68
2022/11/15 07:47:12;;;;;;;41.80;32.67;;;;;;;5.45;69.38;95399.06;5056308;28;20244;-69
2022/11/15 07:49:38;;;;;;;38.13;31.87;;;;;;;5.44;69.72;95397.41;5060254;28;20184;-68
2022/11/15 07:52:04;;;;;;;41.53;33.00;;;;;;;5.40;70.30;95398.56;5060705;28;20354;-68
2022/11/15 07:54:29;;;;;;;40.67;32.53;;;;;;;5.58;69.63;95400.78;5063571;28;20181;-68
2022/11/15 07:56:55;;;;;;;38.73;32.67;;;;;;;5.64;69.77;95395.09;5062606;28;20184;-67
2022/11/15 07:59:20;;;;;;;41.87;33.60;;;;;;;5.75;69.66;95398.59;5059189;28;20206;-68
2022/11/15 08:01:46;;;;;;;38.77;32.63;;;;;;;5.77;69.26;95405.47;5063065;28;20200;-68
2022/11/15 08:04:11;;;;;;;43.93;34.87;;;;;;;5.83;69.11;95398.03;5064464;28;20234;-67
2022/11/15 08:06:37;;;;;;;49.07;34.57;;;;;;;5.92;68.88;95396.53;5063267;28;20177;-67
2022/11/15 08:09:03;;;;;;;59.33;41.27;;;;;;;5.79;69.40;95395.75;5058768;28;20230;-69
2022/11/15 08:11:29;;;;;;;58.93;40.97;;;;;;;5.51;70.52;95392.56;5056724;28;20235;-67
2022/11/15 08:13:54;;;;;;;65.60;43.33;;;;;;;5.46;71.28;95392.91;5060383;28;20185;-67
2022/11/15 08:16:20;;;;;;;62.67;43.63;;;;;;;5.57;71.23;95389.50;5062710;28;20188;-67
2022/11/15 08:18:45;;;;;;;65.93;45.00;;;;;;;5.59;71.15;95392.84;5065931;28;20176;-68
2022/11/15 08:21:18;;;;;;;57.67;42.70;;;;;;;5.78;70.59;95389.72;5059202;28;20177;-72
2022/11/15 08:23:44;;;;;;;66.80;44.93;;;;;;;5.63;70.62;95386.44;5062479;28;20257;-70
2022/11/15 08:26:09;;;;;;;74.87;47.87;;;;;;;5.71;71.05;95386.72;5064922;28;20217;-68
2022/11/15 08:28:35;;;;;;;64.63;45.17;;;;;;;5.82;70.70;95382.47;5052929;28;20185;-68
2022/11/15 08:31:01;;;;;;;67.43;45.80;;;;;;;5.77;70.85;95379.38;5056861;28;20511;-67
2022/11/15 08:33:27;;;;;;;61.77;43.07;;;;;;;5.84;70.66;95383.22;5064675;28;20284;-68
2022/11/15 08:35:56;;;;;;;56.00;41.77;;;;;;;6.10;69.53;95391.75;5066857;28;20176;-69
2022/11/15 08:38:22;;;;;;;55.57;41.70;;;;;;;5.90;69.35;95380.13;5082218;28;20185;-68
2022/11/15 08:40:47;;;;;;;59.63;42.47;;;;;;;5.94;70.09;95376.41;5059270;28;20213;-69
2022/11/15 08:43:13;;;;;;;56.20;42.07;;;;;;;6.15;69.29;95379.19;5065726;28;20208;-69
2022/11/15 08:45:38;;;;;;;55.80;42.67;;;;;;;6.09;69.59;95380.44;5066106;28;20181;-69
2022/11/15 08:48:04;;;;;;;56.53;43.20;;;;;;;6.02;69.64;95370.59;5062718;28;20195;-68
2022/11/15 08:50:30;;;;;;;58.50;42.87;;;;;;;6.22;69.43;95375.13;5062533;28;20924;-67
2022/11/15 08:52:56;;;;;;;55.23;41.73;;;;;;;6.42;68.53;95364.97;5064825;28;20653;-67
2022/11/15 08:55:21;;;;;;;66.10;49.00;;;;;;;6.29;68.99;95368.50;5064160;28;20272;-67
2022/11/15 08:57:46;;;;;;;60.07;44.20;;;;;;;6.40;68.48;95362.47;5066130;28;20188;-69
2022/11/15 09:00:13;;;;;;;60.33;44.50;;;;;;;6.33;68.75;95363.88;5063010;28;20213;-70
2022/11/15 09:02:41;;;;;;;61.30;46.00;;;;;;;6.42;68.95;95357.13;5059676;28;20196;-68
2022/11/15 09:05:08;;;;;;;63.63;45.17;;;;;;;6.44;68.33;95353.44;5059458;28;20189;-67
2022/11/15 09:07:33;;;;;;;68.97;49.60;;;;;;;6.62;67.59;95346.78;5063342;28;20184;-71
2022/11/15 09:09:59;;;;;;;70.33;48.77;;;;;;;6.52;67.98;95340.63;5063806;28;20475;-70
2022/11/15 09:12:25;;;;;;;67.97;47.67;;;;;;;6.49;68.44;95347.84;5068668;28;20303;-69
2022/11/15 09:14:51;;;;;;;63.73;47.03;;;;;;;6.72;68.01;95339.06;5069625;28;20188;-69
2022/11/15 09:17:16;;;;;;;69.73;49.97;;;;;;;6.77;67.39;95329.09;5074519;28;20193;-68
2022/11/15 09:19:41;;;;;;;67.00;47.83;;;;;;;6.83;67.35;95346.06;5069885;28;20204;-65
2022/11/15 09:22:07;;;;;;;62.37;48.80;;;;;;;6.85;66.93;95336.31;5060837;28;20186;-66
2022/11/15 09:24:34;;;;;;;63.87;47.73;;;;;;;6.80;67.25;95322.78;5065812;28;20594;-68
2022/11/15 09:27:00;;;;;;;61.53;45.57;;;;;;;6.77;67.12;95329.09;5071411;28;20275;-68
2022/11/15 09:29:26;;;;;;;65.40;47.00;;;;;;;7.07;66.03;95319.75;5070421;28;20298;-68
2022/11/15 09:31:54;;;;;;;58.03;45.00;;;;;;;7.18;65.97;95321.50;5066975;28;20178;-68
2022/11/15 09:34:20;;;;;;;62.10;45.23;;;;;;;7.28;65.23;95317.19;5076924;28;20199;-69
2022/11/15 09:36:46;;;;;;;59.30;45.73;;;;;;;7.13;65.66;95307.97;5066381;28;20177;-68
2022/11/15 09:39:12;;;;;;;60.23;47.37;;;;;;;7.27;65.31;95308.53;5066090;28;20257;-63
2022/11/15 09:42:01;;;;;;;65.73;46.30;;;;;;;7.40;64.94;95299.66;5064889;28;20219;-66
2022/11/15 09:44:55;;;;;;;60.00;46.83;;;;;;;7.62;64.14;95301.38;5060438;28;20199;-64
2022/11/15 09:47:47;;;;;;;66.53;46.00;;;;;;;7.78;63.70;95300.91;5062130;28;20204;-67
2022/11/15 09:50:28;;;;;;;58.63;46.83;;;;;;;7.94;63.33;95299.50;5079852;28;20189;-69
2022/11/15 09:52:55;;;;;;;60.93;47.03;;;;;;;8.11;62.57;95299.88;5063655;28;20180;-69
2022/11/15 09:55:26;;;;;;;58.10;47.93;;;;;;;8.26;61.90;95289.88;5076122;28;20184;-66
2022/11/15 09:58:05;;;;;;;58.57;47.77;;;;;;;8.39;61.24;95283.50;5051466;28;20185;-68
2022/11/15 10:00:39;;;;;;;60.87;46.83;;;;;;;8.32;61.13;95279.72;5066957;28;20236;-67
2022/11/15 10:03:26;;;;;;;66.73;50.90;;;;;;;8.50;60.90;95279.09;5064161;28;20208;-68
2022/11/15 10:05:55;;;;;;;62.00;49.10;;;;;;;8.53;60.70;95276.25;5064456;28;20667;-66
2022/11/15 10:08:35;;;;;;;62.50;47.40;;;;;;;8.63;60.41;95271.84;5069204;28;20184;-63
2022/11/15 10:11:20;;;;;;;62.73;46.50;;;;;;;8.66;60.24;95263.72;5062970;28;20250;-68
2022/11/15 10:13:49;;;;;;;58.50;47.17;;;;;;;8.80;60.19;95263.34;5064869;28;20181;-68
2022/11/15 10:16:37;;;;;;;59.70;46.17;;;;;;;8.79;60.08;95263.47;5059514;28;20181;-64
2022/11/15 10:19:06;;;;;;;60.40;47.70;;;;;;;8.96;59.72;95257.56;5062025;28;20185;-66
2022/11/15 10:21:53;;;;;;;58.90;47.90;;;;;;;9.08;59.31;95247.78;5056456;28;20177;-69
2022/11/15 10:24:23;;;;;;;64.17;47.40;;;;;;;9.14;59.17;95251.66;5056650;28;20645;-71
2022/11/15 10:26:50;;;;;;;62.37;48.50;;;;;;;9.21;59.13;95250.97;5057000;28;20196;-72
2022/11/15 10:29:23;;;;;;;64.87;49.87;;;;;;;9.20;59.24;95238.81;5055335;28;20196;-69
2022/11/15 10:31:49;;;;;;;60.10;46.87;;;;;;;9.44;58.37;95240.22;5056778;28;20201;-63
2022/11/15 10:34:21;;;;;;;64.70;49.77;;;;;;;9.52;58.06;95229.84;5057577;28;20219;-68
2022/11/15 10:36:58;;;;;;;63.13;48.90;;;;;;;9.70;57.96;95232.56;5061680;28;20230;-71
2022/11/15 10:39:24;;;;;;;60.13;47.27;;;;;;;9.46;58.26;95228.59;5057581;28;20205;-69
2022/11/15 10:41:50;;;;;;;62.80;49.30;;;;;;;9.52;57.78;95221.97;5056363;28;20181;-68
2022/11/15 10:44:28;;;;;;;64.33;48.73;;;;;;;9.83;57.11;95214.69;5061467;28;20181;-68
2022/11/15 10:47:02;;;;;;;55.83;46.43;;;;;;;9.72;57.76;95213.06;5064101;28;20220;-64
2022/11/15 10:49:31;;;;;;;58.20;46.87;;;;;;;10.04;56.58;95198.72;5062526;28;20180;-69
2022/11/15 10:51:58;;;;;;;58.70;43.90;;;;;;;9.71;57.69;95202.72;5058393;28;20210;-68
2022/11/15 10:54:25;;;;;;;57.13;44.03;;;;;;;10.24;56.41;95190.78;5056130;28;20266;-64
2022/11/15 10:56:54;;;;;;;55.03;43.70;;;;;;;10.25;56.22;95198.50;5056856;28;20588;-64
2022/11/15 10:59:30;;;;;;;55.20;43.67;;;;;;;10.46;55.47;95184.34;5056522;28;20259;-68
2022/11/15 11:01:56;;;;;;;57.87;45.80;;;;;;;10.39;55.74;95184.09;5063566;28;20203;-68
2022/11/15 11:04:23;;;;;;;64.93;46.97;;;;;;;10.80;54.63;95169.59;5058417;28;20181;-69
2022/11/15 11:06:59;;;;;;;61.50;46.67;;;;;;;11.01;53.87;95169.31;5055014;28;20718;-68
2022/11/15 11:09:37;;;;;;;58.73;45.40;;;;;;;11.26;53.17;95169.50;5054149;28;20266;-68
2022/11/15 11:12:05;;;;;;;61.70;47.57;;;;;;;11.33;52.47;95167.91;5061539;28;20433;-68
2022/11/15 11:14:31;;;;;;;62.07;46.37;;;;;;;11.31;53.00;95162.00;5059471;28;20184;-68
2022/11/15 11:17:13;;;;;;;65.33;46.30;;;;;;;11.54;52.58;95161.47;5061900;28;20184;-68
2022/11/15 11:19:44;;;;;;;61.27;47.00;;;;;;;11.76;52.07;95160.13;5061899;28;20200;-69
2022/11/15 11:22:15;;;;;;;62.33;48.17;;;;;;;11.76;51.97;95147.81;5062036;28;20272;-67
2022/11/15 11:24:55;;;;;;;70.57;48.77;;;;;;;11.80;51.59;95151.78;5061763;28;20177;-67
2022/11/15 11:27:50;;;;;;;63.13;45.90;;;;;;;11.70;52.20;95146.59;5052772;28;20181;-68
2022/11/15 11:30:25;;;;;;;67.07;46.30;;;;;;;11.47;52.47;95134.94;4981929;28;20244;-68
2022/11/15 11:33:03;;;;;;;66.07;47.13;;;;;;;11.47;52.71;95132.31;4982978;28;20195;-68
2022/11/15 11:35:41;;;;;;;66.33;47.43;;;;;;;11.53;52.77;95126.44;4984887;28;20216;-69
2022/11/15 11:38:29;;;;;;;63.57;46.80;;;;;;;11.64;52.09;95118.25;4967513;28;20277;-67
2022/11/15 11:41:04;;;;;;;61.80;47.23;;;;;;;11.76;51.90;95108.31;4983998;28;20219;-67
2022/11/15 11:43:48;;;;;;;60.40;47.40;;;;;;;12.00;51.44;95110.25;4969461;28;20250;-70
2022/11/15 11:46:37;;;;;;;58.37;46.23;;;;;;;12.48;50.24;95100.00;4965438;28;20202;-68
2022/11/15 11:49:37;;;;;;;61.17;47.17;;;;;;;12.65;49.55;95099.06;4981787;28;20200;-71
2022/11/15 11:52:18;;;;;;;66.87;47.33;;;;;;;12.42;50.08;95092.75;4963620;28;20246;-73